createdAt,value
2022-11-12T00:00:17.402Z,12.43
2022-11-12T00:03:38.610Z,14.23
2022-11-12T00:06:59.606Z,12.32
2022-11-12T00:10:21.538Z,14.20
2022-11-12T00:13:42.848Z,13.10
2022-11-12T00:17:04.536Z,12.18
2022-11-12T00:20:25.753Z,12.73
2022-11-12T00:23:46.577Z,13.05
2022-11-12T00:27:07.919Z,11.55
2022-11-12T00:30:30.689Z,11.40
2022-11-12T00:33:52.998Z,11.68
2022-11-12T00:37:14.041Z,12.25
2022-11-12T00:40:35.406Z,12.20
2022-11-12T00:43:56.469Z,13.20
2022-11-12T00:47:17.686Z,12.05
2022-11-12T00:50:38.933Z,12.25
2022-11-12T00:53:59.961Z,11.20
2022-11-12T00:57:22.677Z,11.30
2022-11-12T01:00:45.214Z,8.83
2022-11-12T01:04:06.094Z,11.55
2022-11-12T01:07:29.220Z,11.73
2022-11-12T01:10:50.651Z,10.65
2022-11-12T01:14:12.905Z,12.23
2022-11-12T01:17:35.035Z,11.85
2022-11-12T01:20:57.559Z,12.15
2022-11-12T01:24:21.152Z,12.48
2022-11-12T01:27:43.006Z,11.43
2022-11-12T01:31:26.667Z,11.35
2022-11-12T01:34:48.452Z,13.10
2022-11-12T01:38:09.937Z,12.13
2022-11-12T01:41:33.482Z,12.10
2022-11-12T01:44:54.626Z,11.38
2022-11-12T01:48:34.029Z,11.43
2022-11-12T01:52:00.393Z,12.40
2022-11-12T01:55:25.673Z,11.73
2022-11-12T01:58:48.003Z,11.52
2022-11-12T02:02:09.313Z,10.82
2022-11-12T02:05:31.114Z,10.60
2022-11-12T02:08:52.534Z,11.95
2022-11-12T02:12:33.471Z,11.48
2022-11-12T02:15:54.373Z,11.45
2022-11-12T02:19:16.506Z,10.95
2022-11-12T02:22:38.114Z,10.38
2022-11-12T02:26:02.542Z,10.88
2022-11-12T02:29:23.865Z,9.95
2022-11-12T02:32:45.155Z,11.18
2022-11-12T02:36:06.981Z,10.98
2022-11-12T02:39:28.134Z,10.52
2022-11-12T02:42:49.368Z,9.90
2022-11-12T02:46:12.123Z,10.90
2022-11-12T02:49:33.113Z,11.43
2022-11-12T02:52:54.266Z,12.48
2022-11-12T02:56:15.784Z,11.50
2022-11-12T02:59:37.541Z,10.88
2022-11-12T03:02:59.904Z,10.10
2022-11-12T03:06:21.016Z,10.18
2022-11-12T03:09:42.021Z,11.05
2022-11-12T03:13:02.979Z,11.15
2022-11-12T03:16:24.010Z,10.63
2022-11-12T03:19:45.586Z,10.65
2022-11-12T03:23:10.473Z,11.23
2022-11-12T03:26:35.727Z,10.93
2022-11-12T03:30:00.294Z,11.55
2022-11-12T03:33:22.334Z,12.07
2022-11-12T03:36:45.397Z,11.93
2022-11-12T03:40:07.635Z,10.05
2022-11-12T03:43:28.576Z,10.77
2022-11-12T03:46:49.796Z,11.23
2022-11-12T03:50:12.046Z,12.23
2022-11-12T03:53:33.024Z,10.38
2022-11-12T03:56:55.158Z,11.32
2022-11-12T04:00:17.385Z,11.30
2022-11-12T04:03:38.654Z,10.38
2022-11-12T04:07:19.018Z,9.95
2022-11-12T04:10:40.362Z,10.45
2022-11-12T04:14:01.712Z,10.23
2022-11-12T04:17:52.302Z,10.63
2022-11-12T04:21:34.268Z,10.25
2022-11-12T04:25:14.605Z,10.98
2022-11-12T04:28:36.154Z,11.80
2022-11-12T04:31:57.334Z,10.40
2022-11-12T04:35:20.052Z,10.73
2022-11-12T04:38:41.119Z,10.35
2022-11-12T04:42:20.909Z,10.32
2022-11-12T04:45:43.360Z,10.32
2022-11-12T04:49:05.732Z,10.50
2022-11-12T04:52:28.186Z,10.18
2022-11-12T04:55:53.527Z,9.73
2022-11-12T04:59:14.717Z,9.82
2022-11-12T05:02:36.164Z,9.93
2022-11-12T05:06:27.252Z,10.23
2022-11-12T05:09:48.492Z,11.13
2022-11-12T05:13:10.188Z,10.32
2022-11-12T05:16:30.889Z,9.60
2022-11-12T05:19:52.637Z,9.55
2022-11-12T05:23:14.274Z,8.68
2022-11-12T05:26:35.325Z,9.40
2022-11-12T05:29:58.223Z,8.05
2022-11-12T05:33:22.772Z,8.90
2022-11-12T05:36:44.451Z,9.98
2022-11-12T05:40:05.716Z,9.65
2022-11-12T05:43:26.989Z,10.18
2022-11-12T05:46:51.065Z,11.05
2022-11-12T05:50:13.182Z,8.90
2022-11-12T05:53:34.318Z,10.40
2022-11-12T05:56:55.439Z,10.02
2022-11-12T06:00:20.733Z,11.43
2022-11-12T06:03:45.871Z,18.15
2022-11-12T06:07:08.686Z,28.40
2022-11-12T06:10:29.950Z,11.00
2022-11-12T06:13:50.864Z,9.77
2022-11-12T06:17:12.765Z,10.52
2022-11-12T06:20:34.524Z,10.43
2022-11-12T06:23:58.632Z,9.32
2022-11-12T06:27:20.568Z,7.32
2022-11-12T06:30:41.748Z,9.10
2022-11-12T06:34:03.620Z,10.45
2022-11-12T06:37:24.585Z,9.68
2022-11-12T06:40:45.413Z,10.27
2022-11-12T06:44:09.039Z,9.85
2022-11-12T06:47:30.475Z,7.63
2022-11-12T06:50:52.944Z,9.63
2022-11-12T06:54:23.793Z,10.50
2022-11-12T06:57:45.297Z,12.32
2022-11-12T07:01:12.553Z,15.18
2022-11-12T07:04:34.525Z,14.13
2022-11-12T07:08:00.880Z,23.88
2022-11-12T07:11:22.693Z,11.43
2022-11-12T07:14:43.803Z,11.32
2022-11-12T07:18:05.243Z,12.13
2022-11-12T07:21:26.934Z,12.15
2022-11-12T07:24:47.924Z,14.70
2022-11-12T07:28:11.210Z,13.73
2022-11-12T07:31:32.225Z,12.25
2022-11-12T07:34:53.400Z,13.18
2022-11-12T07:38:15.501Z,12.70
2022-11-12T07:41:36.509Z,13.77
2022-11-12T07:44:58.117Z,11.68
2022-11-12T07:48:19.320Z,11.25
2022-11-12T07:51:40.746Z,11.88
2022-11-12T07:55:02.399Z,11.65
2022-11-12T07:58:25.165Z,11.60
2022-11-12T08:01:46.565Z,11.23
2022-11-12T08:05:14.478Z,11.13
2022-11-12T08:08:39.079Z,10.40
2022-11-12T08:12:00.735Z,11.80
2022-11-12T08:15:23.260Z,10.57
2022-11-12T08:18:46.137Z,10.48
2022-11-12T08:22:07.117Z,10.10
2022-11-12T08:25:28.644Z,10.68
2022-11-12T08:28:50.016Z,9.38
2022-11-12T08:32:11.519Z,9.70
2022-11-12T08:35:33.361Z,9.60
2022-11-12T08:38:54.790Z,8.43
2022-11-12T08:42:16.389Z,9.52
2022-11-12T08:45:42.525Z,8.90
2022-11-12T08:49:03.364Z,9.73
2022-11-12T08:52:24.874Z,8.75
2022-11-12T08:55:46.888Z,8.73
2022-11-12T08:59:08.551Z,9.57
2022-11-12T09:02:29.887Z,9.65
2022-11-12T09:05:52.111Z,8.85
2022-11-12T09:09:13.636Z,8.85
2022-11-12T09:12:36.704Z,9.93
2022-11-12T09:16:02.481Z,8.73
2022-11-12T09:19:23.883Z,8.77
2022-11-12T09:22:46.027Z,8.00
2022-11-12T09:26:08.406Z,8.02
2022-11-12T09:29:30.018Z,7.75
2022-11-12T09:32:51.564Z,7.78
2022-11-12T09:36:12.602Z,8.30
2022-11-12T09:39:34.033Z,9.05
2022-11-12T09:42:56.168Z,8.68
2022-11-12T09:46:29.553Z,9.05
2022-11-12T09:49:58.612Z,8.80
2022-11-12T09:53:21.637Z,12.10
2022-11-12T09:56:42.694Z,9.77
2022-11-12T10:00:04.352Z,9.50
2022-11-12T10:03:35.242Z,7.80
2022-11-12T10:07:14.285Z,11.45
2022-11-12T10:10:45.942Z,9.43
2022-11-12T10:14:38.416Z,7.50
2022-11-12T10:18:05.463Z,7.18
2022-11-12T10:21:45.437Z,6.68
2022-11-12T10:25:17.994Z,7.20
2022-11-12T10:29:10.370Z,7.53
2022-11-12T10:32:32.695Z,7.22
2022-11-12T10:35:54.598Z,7.43
2022-11-12T10:39:35.108Z,6.20
2022-11-12T10:43:05.554Z,6.40
2022-11-12T10:46:32.830Z,6.45
2022-11-12T10:50:06.400Z,6.32
2022-11-12T10:53:38.852Z,7.38
2022-11-12T10:57:20.594Z,5.65
2022-11-12T11:00:55.065Z,7.03
2022-11-12T11:04:36.228Z,4.25
2022-11-12T11:07:58.086Z,5.07
2022-11-12T11:11:28.647Z,5.35
2022-11-12T11:15:19.588Z,5.65
2022-11-12T11:18:42.967Z,5.43
2022-11-12T11:22:25.469Z,6.72
2022-11-12T11:25:48.854Z,4.80
2022-11-12T11:29:43.462Z,4.80
2022-11-12T11:33:22.234Z,5.90
2022-11-12T11:36:59.379Z,5.43
2022-11-12T11:40:26.411Z,5.90
2022-11-12T11:44:12.696Z,4.68
2022-11-12T11:48:00.622Z,5.30
2022-11-12T11:51:34.964Z,5.65
2022-11-12T11:55:34.489Z,5.70
2022-11-12T11:59:33.269Z,5.40
2022-11-12T12:03:19.892Z,6.38
2022-11-12T12:07:07.902Z,6.60
2022-11-12T12:11:08.320Z,6.95
2022-11-12T12:14:49.019Z,6.10
2022-11-12T12:18:29.078Z,6.57
2022-11-12T12:21:51.901Z,6.53
2022-11-12T12:25:29.276Z,6.53
2022-11-12T12:29:03.089Z,7.63
2022-11-12T12:32:36.609Z,8.85
2022-11-12T12:36:04.345Z,7.70
2022-11-12T12:39:28.051Z,7.13
2022-11-12T12:43:20.927Z,7.78
2022-11-12T12:46:54.707Z,6.85
2022-11-12T12:50:16.714Z,6.82
2022-11-12T12:53:38.011Z,7.70
2022-11-12T12:56:59.647Z,7.53
2022-11-12T13:00:40.581Z,7.40
2022-11-12T13:04:04.510Z,7.47
2022-11-12T13:07:48.691Z,9.25
2022-11-12T13:11:10.341Z,9.23
2022-11-12T13:14:36.900Z,9.75
2022-11-12T13:17:58.200Z,10.27
2022-11-12T13:21:21.410Z,10.30
2022-11-12T13:25:05.863Z,9.27
2022-11-12T13:28:27.489Z,7.57
2022-11-12T13:31:48.756Z,9.65
2022-11-12T13:35:12.974Z,9.73
2022-11-12T13:38:38.397Z,7.23
2022-11-12T13:42:18.820Z,9.15
2022-11-12T13:45:50.705Z,14.40
2022-11-12T13:49:15.101Z,9.77
2022-11-12T13:52:36.242Z,6.13
2022-11-12T13:55:57.554Z,9.95
2022-11-12T13:59:23.198Z,9.70
2022-11-12T14:02:46.676Z,9.55
2022-11-12T14:06:16.264Z,9.80
2022-11-12T14:10:08.304Z,10.27
2022-11-12T14:13:42.543Z,8.65
2022-11-12T14:17:22.395Z,9.38
2022-11-12T14:20:43.851Z,9.65
2022-11-12T14:24:05.830Z,11.07
2022-11-12T14:27:29.746Z,33.25
2022-11-12T14:30:51.145Z,24.38
2022-11-12T14:34:32.907Z,13.75
2022-11-12T14:38:15.210Z,12.88
2022-11-12T14:41:39.306Z,9.13
2022-11-12T14:45:00.216Z,11.93
2022-11-12T14:48:21.849Z,13.48
2022-11-12T14:51:48.666Z,15.00
2022-11-12T14:55:24.313Z,10.23
2022-11-12T14:58:46.205Z,8.50
2022-11-12T15:02:42.632Z,11.38
2022-11-12T15:06:09.273Z,12.98
2022-11-12T15:09:36.655Z,11.75
2022-11-12T15:13:13.757Z,19.83
2022-11-12T15:16:36.123Z,17.23
2022-11-12T15:20:21.597Z,15.82
2022-11-12T15:24:10.041Z,16.05
2022-11-12T15:27:41.231Z,17.25
2022-11-12T15:31:04.074Z,13.00
2022-11-12T15:34:25.097Z,15.90
2022-11-12T15:37:47.123Z,12.23
2022-11-12T15:41:22.061Z,12.73
2022-11-12T15:44:43.868Z,12.73
2022-11-12T15:48:04.977Z,14.30
2022-11-12T15:51:25.968Z,15.60
2022-11-12T15:54:47.338Z,16.20
2022-11-12T15:58:14.847Z,10.80
2022-11-12T16:01:37.726Z,15.80
2022-11-12T16:04:58.686Z,16.83
2022-11-12T16:08:21.102Z,14.95
2022-11-12T16:11:42.457Z,13.77
2022-11-12T16:15:04.479Z,14.90
2022-11-12T16:18:25.904Z,16.02
2022-11-12T16:21:47.067Z,15.77
2022-11-12T16:25:08.150Z,20.75
2022-11-12T16:28:31.432Z,21.52
2022-11-12T16:31:56.016Z,24.30
2022-11-12T16:35:23.156Z,24.73
2022-11-12T16:38:44.552Z,18.92
2022-11-12T16:42:05.680Z,18.75
2022-11-12T16:45:35.325Z,15.02
2022-11-12T16:48:56.863Z,16.58
2022-11-12T16:52:21.159Z,15.73
2022-11-12T16:55:42.240Z,15.35
2022-11-12T16:59:03.464Z,16.08
2022-11-12T17:02:24.526Z,16.25
2022-11-12T17:05:45.367Z,15.38
2022-11-12T17:09:08.441Z,14.45
2022-11-12T17:12:29.691Z,14.85
2022-11-12T17:15:58.476Z,15.65
2022-11-12T17:19:19.385Z,14.13
2022-11-12T17:22:42.239Z,14.82
2022-11-12T17:26:06.068Z,15.98
2022-11-12T17:29:27.607Z,17.15
2022-11-12T17:32:49.177Z,15.73
2022-11-12T17:36:12.906Z,13.85
2022-11-12T17:39:34.780Z,12.35
2022-11-12T17:42:56.180Z,16.73
2022-11-12T17:46:18.886Z,17.55
2022-11-12T17:49:41.227Z,16.85
2022-11-12T17:53:02.481Z,18.42
2022-11-12T17:56:25.439Z,19.98
2022-11-12T17:59:46.618Z,18.60
2022-11-12T18:03:07.611Z,17.77
2022-11-12T18:06:32.064Z,29.27
2022-11-12T18:09:53.581Z,26.67
2022-11-12T18:13:16.061Z,34.30
2022-11-12T18:16:37.910Z,35.47
2022-11-12T18:19:59.633Z,31.30
2022-11-12T18:23:20.976Z,31.13
2022-11-12T18:26:42.322Z,29.05
2022-11-12T18:30:04.458Z,24.27
2022-11-12T18:33:26.253Z,23.70
2022-11-12T18:36:50.703Z,19.33
2022-11-12T18:40:12.408Z,22.27
2022-11-12T18:43:33.991Z,22.77
2022-11-12T18:46:55.191Z,20.58
2022-11-12T18:50:16.640Z,25.90
2022-11-12T18:53:38.966Z,24.73
2022-11-12T18:56:59.945Z,26.13
2022-11-12T19:00:21.483Z,26.58
2022-11-12T19:03:42.984Z,28.92
2022-11-12T19:07:04.038Z,23.25
2022-11-12T19:10:25.125Z,24.88
2022-11-12T19:13:50.507Z,22.88
2022-11-12T19:17:11.697Z,25.38
2022-11-12T19:20:33.801Z,26.48
2022-11-12T19:23:56.507Z,26.05
2022-11-12T19:27:18.106Z,29.02
2022-11-12T19:30:40.014Z,29.63
2022-11-12T19:34:01.938Z,31.05
2022-11-12T19:37:33.538Z,26.50
2022-11-12T19:40:55.418Z,28.52
2022-11-12T19:44:16.881Z,29.20
2022-11-12T19:47:37.828Z,28.70
2022-11-12T19:51:06.847Z,30.13
2022-11-12T19:54:27.783Z,30.25
2022-11-12T19:57:48.965Z,31.50
2022-11-12T20:01:13.927Z,30.92
2022-11-12T20:04:35.894Z,31.38
2022-11-12T20:07:57.040Z,31.75
2022-11-12T20:11:19.335Z,32.50
2022-11-12T20:14:40.920Z,31.10
2022-11-12T20:18:03.361Z,32.78
2022-11-12T20:21:25.164Z,34.90
2022-11-12T20:24:46.994Z,30.75
2022-11-12T20:28:08.857Z,30.67
2022-11-12T20:31:32.064Z,35.35
2022-11-12T20:34:56.128Z,32.78
2022-11-12T20:38:17.448Z,30.63
2022-11-12T20:41:39.587Z,29.73
2022-11-12T20:45:01.681Z,30.77
2022-11-12T20:48:22.761Z,28.13
2022-11-12T20:51:43.965Z,26.38
2022-11-12T20:55:06.202Z,28.88
2022-11-12T20:58:29.987Z,27.17
2022-11-12T21:01:52.513Z,20.10
2022-11-12T21:05:14.969Z,26.95
2022-11-12T21:08:36.049Z,25.52
2022-11-12T21:11:58.362Z,26.30
2022-11-12T21:15:19.569Z,29.77
2022-11-12T21:18:41.434Z,25.30
2022-11-12T21:22:02.874Z,26.42
2022-11-12T21:25:24.265Z,25.85
2022-11-12T21:28:46.671Z,25.60
2022-11-12T21:32:08.078Z,27.45
2022-11-12T21:35:29.071Z,34.22
2022-11-12T21:39:01.028Z,31.20
2022-11-12T21:42:22.155Z,26.33
2022-11-12T21:45:47.492Z,26.25
2022-11-12T21:49:09.207Z,27.67
2022-11-12T21:52:33.723Z,26.80
2022-11-12T21:55:54.449Z,26.50
2022-11-12T21:59:17.103Z,27.40
2022-11-12T22:02:38.145Z,25.80
2022-11-12T22:06:00.529Z,27.17
2022-11-12T22:09:21.910Z,27.98
2022-11-12T22:12:58.676Z,27.92
2022-11-12T22:16:25.645Z,29.17
2022-11-12T22:19:46.890Z,30.23
2022-11-12T22:23:08.433Z,26.42
2022-11-12T22:26:33.758Z,31.08
2022-11-12T22:33:18.112Z,30.65
2022-11-12T22:36:40.402Z,29.20
2022-11-12T22:40:06.923Z,29.98
2022-11-12T22:43:33.299Z,32.80
2022-11-12T22:46:54.117Z,34.30
2022-11-12T22:50:16.198Z,32.70
2022-11-12T22:53:37.484Z,32.97
2022-11-12T22:56:58.704Z,34.63
2022-11-12T23:00:31.250Z,34.70
2022-11-12T23:03:56.807Z,33.13
2022-11-12T23:07:18.505Z,32.97
2022-11-12T23:10:45.481Z,33.85
2022-11-12T23:14:07.255Z,32.42
2022-11-12T23:17:28.899Z,33.75
2022-11-12T23:20:50.201Z,31.05
2022-11-12T23:24:12.109Z,33.88
2022-11-12T23:27:33.179Z,33.05
2022-11-12T23:30:54.349Z,33.53
2022-11-12T23:34:16.014Z,30.48
2022-11-12T23:37:37.092Z,32.60
2022-11-12T23:40:58.159Z,29.45
2022-11-12T23:44:19.853Z,29.52
2022-11-12T23:47:41.394Z,28.55
2022-11-12T23:51:13.933Z,27.42
2022-11-12T23:54:35.443Z,30.05
2022-11-12T23:57:57.305Z,29.70
